sensor_id;sensor_type;location;lat;lon;timestamp;P1;durP1;ratioP1;P2;durP2;ratioP2
75937;SDS011;64615;32.062;34.834;2023-04-03T02:32:14;8.90;;;3.47;;
75937;SDS011;64615;32.062;34.834;2023-04-03T02:34:40;13.82;;;3.83;;
75937;SDS011;64615;32.062;34.834;2023-04-03T02:37:06;9.93;;;3.10;;
75937;SDS011;64615;32.062;34.834;2023-04-03T02:39:31;10.35;;;3.17;;
75937;SDS011;64615;32.062;34.834;2023-04-03T02:41:57;9.07;;;3.40;;
75937;SDS011;64615;32.062;34.834;2023-04-03T02:44:22;7.00;;;3.38;;
75937;SDS011;64615;32.062;34.834;2023-04-03T02:46:48;7.72;;;3.65;;
75937;SDS011;64615;32.062;34.834;2023-04-03T02:49:14;11.05;;;3.70;;
75937;SDS011;64615;32.062;34.834;2023-04-03T02:51:40;10.32;;;3.50;;
75937;SDS011;64615;32.062;34.834;2023-04-03T02:54:06;13.63;;;3.72;;
75937;SDS011;64615;32.062;34.834;2023-04-03T02:56:32;9.07;;;3.50;;
75937;SDS011;64615;32.062;34.834;2023-04-03T02:58:57;8.70;;;3.35;;
75937;SDS011;64615;32.062;34.834;2023-04-03T03:01:23;8.70;;;3.65;;
75937;SDS011;64615;32.062;34.834;2023-04-03T03:03:49;9.43;;;3.85;;
75937;SDS011;64615;32.062;34.834;2023-04-03T03:06:15;11.90;;;4.30;;
75937;SDS011;64615;32.062;34.834;2023-04-03T03:08:42;9.02;;;3.72;;
75937;SDS011;64615;32.062;34.834;2023-04-03T03:11:08;11.57;;;3.90;;
75937;SDS011;64615;32.062;34.834;2023-04-03T03:13:35;10.50;;;3.90;;
75937;SDS011;64615;32.062;34.834;2023-04-03T03:16:01;9.18;;;3.90;;
75937;SDS011;64615;32.062;34.834;2023-04-03T03:18:27;8.85;;;4.20;;
75937;SDS011;64615;32.062;34.834;2023-04-03T03:20:54;12.30;;;4.25;;
75937;SDS011;64615;32.062;34.834;2023-04-03T03:23:22;16.27;;;4.45;;
75937;SDS011;64615;32.062;34.834;2023-04-03T03:25:49;11.52;;;4.28;;
75937;SDS011;64615;32.062;34.834;2023-04-03T03:28:14;10.65;;;4.05;;
75937;SDS011;64615;32.062;34.834;2023-04-03T04:10:20;14.82;;;4.97;;
75937;SDS011;64615;32.062;34.834;2023-04-03T04:12:46;12.95;;;5.03;;
75937;SDS011;64615;32.062;34.834;2023-04-03T04:15:14;17.17;;;4.60;;
75937;SDS011;64615;32.062;34.834;2023-04-03T04:17:39;18.45;;;4.82;;
75937;SDS011;64615;32.062;34.834;2023-04-03T04:20:05;15.23;;;5.03;;
75937;SDS011;64615;32.062;34.834;2023-04-03T04:22:31;18.20;;;4.65;;
75937;SDS011;64615;32.062;34.834;2023-04-03T04:24:57;28.90;;;5.25;;
75937;SDS011;64615;32.062;34.834;2023-04-03T04:27:22;27.00;;;5.25;;
75937;SDS011;64615;32.062;34.834;2023-04-03T04:29:48;21.73;;;5.05;;
75937;SDS011;64615;32.062;34.834;2023-04-03T04:32:14;22.25;;;5.03;;
75937;SDS011;64615;32.062;34.834;2023-04-03T04:34:39;20.02;;;5.20;;
75937;SDS011;64615;32.062;34.834;2023-04-03T04:37:05;38.10;;;6.10;;
75937;SDS011;64615;32.062;34.834;2023-04-03T04:39:31;27.13;;;5.47;;
75937;SDS011;64615;32.062;34.834;2023-04-03T04:41:56;28.02;;;5.35;;
75937;SDS011;64615;32.062;34.834;2023-04-03T04:44:22;25.25;;;5.53;;
75937;SDS011;64615;32.062;34.834;2023-04-03T04:46:47;31.73;;;5.47;;
75937;SDS011;64615;32.062;34.834;2023-04-03T04:49:38;18.88;;;5.15;;
75937;SDS011;64615;32.062;34.834;2023-04-03T04:52:29;16.52;;;5.35;;
75937;SDS011;64615;32.062;34.834;2023-04-03T04:55:20;93.18;;;64.65;;
75937;SDS011;64615;32.062;34.834;2023-04-03T04:58:11;48.83;;;24.42;;
75937;SDS011;64615;32.062;34.834;2023-04-03T05:01:03;175.30;;;110.88;;
75937;SDS011;64615;32.062;34.834;2023-04-03T05:03:58;138.15;;;87.20;;
75937;SDS011;64615;32.062;34.834;2023-04-03T05:06:49;126.60;;;81.18;;
75937;SDS011;64615;32.062;34.834;2023-04-03T05:09:40;263.48;;;176.85;;
